Costa Romantica — IBCR — position and weather

sailwx.info

Track history (hours):
 
Tides and Currents Weather Stations Pressure Air Temp Water Temp Dewpoint Dewpoint Depression Visibility Wind Speed Wind Dir Waves Ship Positions

Costa Romantica

Last reported at 2018-Feb-23 09:01 UTC. Time now 2018-Feb-26 01:01 UTC.
Position N 25°16' E 122°06'.

Length 221 m; draft 7.8 m.

Type: Ship. MMSI: 247817000.

Date/timePositionNaut miles runAvg speedWind from/ knotsBaromVisibWave heightAir tempDewpointWater temp
2018-Feb-23 09:01N 25°16' E 122°06'016.3
2018-Feb-23 09:00N 25°16' E 122°06'714.7
2018-Feb-23 08:30N 25°15' E 121°58'713.7
2018-Feb-23 08:00N 25°15' E 121°50'612.5
2018-Feb-23 07:30N 25°11' E 121°46'3 6.0
2018-Feb-23 07:00N 25°08' E 121°45'0 0.0
2018-Feb-23 06:27N 25°08' E 121°45'0 0.0
2018-Feb-23 06:00N 25°08' E 121°45'0 0.0
2018-Feb-23 05:27N 25°08' E 121°45'0 0.0
2018-Feb-23 05:00N 25°08' E 121°45'0 0.0
2018-Feb-23 04:30N 25°08' E 121°45'0 0.0
2018-Feb-23 04:00N 25°08' E 121°45'0 0.0
2018-Feb-23 03:30N 25°08' E 121°45'0 0.0
2018-Feb-23 03:00N 25°08' E 121°45'0 0.0
2018-Feb-23 02:30N 25°08' E 121°45'0 0.0
2018-Feb-23 02:00N 25°08' E 121°45'0 0.0
2018-Feb-23 01:30N 25°08' E 121°45'0 0.0
2018-Feb-23 01:00N 25°08' E 121°45'0 0.0
2018-Feb-23 00:30N 25°08' E 121°45'0 0.0
2018-Feb-23 00:00N 25°08' E 121°45'0 0.7
2018-Feb-22 23:30N 25°08' E 121°45'2 3.7
2018-Feb-22 23:00N 25°10' E 121°45'510.9
2018-Feb-22 22:30N 25°15' E 121°43'917.2
2018-Feb-22 22:01N 25°22' E 121°37'917.2
2018-Feb-22 21:30N 25°22' E 121°27'917.5
2018-Feb-22 21:00N 25°20' E 121°18'916.9
2018-Feb-22 20:30N 25°18' E 121°09'816.4
2018-Feb-22 20:00N 25°15' E 121°00'815.9
2018-Feb-22 19:30N 25°12' E 120°52'13915.2
2018-Feb-22 10:22N 24°04' E 118°39'514.2
2018-Feb-22 10:00N 24°01' E 118°35'714.0
2018-Feb-22 09:30N 23°57' E 118°29'713.9
2018-Feb-22 09:00N 23°53' E 118°23'1514.3
2018-Feb-22 07:59N 23°42' E 118°12'714.7
2018-Feb-22 07:30N 23°37' E 118°06'714.8
2018-Feb-22 07:00N 23°31' E 118°01'715.0
2018-Feb-22 06:30N 23°26' E 117°56'815.6
2018-Feb-22 06:00N 23°20' E 117°50'815.7
2018-Feb-22 05:29N 23°14' E 117°44'  
2018-Feb-16 13:29N 23°31' E 118°09'5715.9
2018-Feb-16 09:54N 24°05' E 118°59'14817.2
2018-Feb-16 01:18N 25°35' E 121°08'618.0
2018-Feb-16 01:00N 25°39' E 121°13'173 4.1
2018-Feb-14 07:00N 24°23' E 124°04'5 0.7
2018-Feb-13 23:28N 24°20' E 124°09'3211.7
2018-Feb-13 20:42N 24°43' E 123°43'315.4
2018-Feb-13 20:29N 24°46' E 123°41'815.4
2018-Feb-13 20:00N 24°51' E 123°36'815.3
2018-Feb-13 19:30N 24°57' E 123°31'815.4
2018-Feb-13 19:00N 25°03' E 123°26'815.4
2018-Feb-13 18:30N 25°09' E 123°20'815.9
2018-Feb-13 18:00N 25°16' E 123°15'12214.5
2018-Feb-13 09:37N 25°32' E 121°01'215.5
2018-Feb-13 09:30N 25°31' E 120°59'  
Track history (hours):
 
Tides and Currents Weather Stations Pressure Air Temp Water Temp Dewpoint Dewpoint Depression Visibility Wind Speed Wind Dir Waves Ship Positions

Costa Romantica

Last reported at 2018-Feb-23 09:01 UTC. Time now 2018-Feb-26 01:01 UTC.
Position N 25°16' E 122°06'.

Length 221 m; draft 7.8 m.

Type: Ship. MMSI: 247817000.

Date/timePositionNaut miles runAvg speedWind from/ knotsBaromVisibWave heightAir tempDewpointWater temp
2018-Feb-23 09:01N 25°16' E 122°06'016.3
2018-Feb-23 09:00N 25°16' E 122°06'714.7
2018-Feb-23 08:30N 25°15' E 121°58'713.7
2018-Feb-23 08:00N 25°15' E 121°50'612.5
2018-Feb-23 07:30N 25°11' E 121°46'3 6.0
2018-Feb-23 07:00N 25°08' E 121°45'0 0.0
2018-Feb-23 06:27N 25°08' E 121°45'0 0.0
2018-Feb-23 06:00N 25°08' E 121°45'0 0.0
2018-Feb-23 05:27N 25°08' E 121°45'0 0.0
2018-Feb-23 05:00N 25°08' E 121°45'0 0.0
2018-Feb-23 04:30N 25°08' E 121°45'0 0.0
2018-Feb-23 04:00N 25°08' E 121°45'0 0.0
2018-Feb-23 03:30N 25°08' E 121°45'0 0.0
2018-Feb-23 03:00N 25°08' E 121°45'0 0.0
2018-Feb-23 02:30N 25°08' E 121°45'0 0.0
2018-Feb-23 02:00N 25°08' E 121°45'0 0.0
2018-Feb-23 01:30N 25°08' E 121°45'0 0.0
2018-Feb-23 01:00N 25°08' E 121°45'0 0.0
2018-Feb-23 00:30N 25°08' E 121°45'0 0.0
2018-Feb-23 00:00N 25°08' E 121°45'0 0.7
2018-Feb-22 23:30N 25°08' E 121°45'2 3.7
2018-Feb-22 23:00N 25°10' E 121°45'510.9
2018-Feb-22 22:30N 25°15' E 121°43'917.2
2018-Feb-22 22:01N 25°22' E 121°37'917.2
2018-Feb-22 21:30N 25°22' E 121°27'917.5
2018-Feb-22 21:00N 25°20' E 121°18'916.9
2018-Feb-22 20:30N 25°18' E 121°09'816.4
2018-Feb-22 20:00N 25°15' E 121°00'815.9
2018-Feb-22 19:30N 25°12' E 120°52'13915.2
2018-Feb-22 10:22N 24°04' E 118°39'514.2
2018-Feb-22 10:00N 24°01' E 118°35'714.0
2018-Feb-22 09:30N 23°57' E 118°29'713.9
2018-Feb-22 09:00N 23°53' E 118°23'1514.3
2018-Feb-22 07:59N 23°42' E 118°12'714.7
2018-Feb-22 07:30N 23°37' E 118°06'714.8
2018-Feb-22 07:00N 23°31' E 118°01'715.0
2018-Feb-22 06:30N 23°26' E 117°56'815.6
2018-Feb-22 06:00N 23°20' E 117°50'815.7
2018-Feb-22 05:29N 23°14' E 117°44'  
2018-Feb-16 13:29N 23°31' E 118°09'5715.9
2018-Feb-16 09:54N 24°05' E 118°59'14817.2
2018-Feb-16 01:18N 25°35' E 121°08'618.0
2018-Feb-16 01:00N 25°39' E 121°13'173 4.1
2018-Feb-14 07:00N 24°23' E 124°04'5 0.7
2018-Feb-13 23:28N 24°20' E 124°09'3211.7
2018-Feb-13 20:42N 24°43' E 123°43'315.4
2018-Feb-13 20:29N 24°46' E 123°41'815.4
2018-Feb-13 20:00N 24°51' E 123°36'815.3
2018-Feb-13 19:30N 24°57' E 123°31'815.4
2018-Feb-13 19:00N 25°03' E 123°26'815.4
2018-Feb-13 18:30N 25°09' E 123°20'815.9
2018-Feb-13 18:00N 25°16' E 123°15'12214.5
2018-Feb-13 09:37N 25°32' E 121°01'215.5
2018-Feb-13 09:30N 25°31' E 120°59'  

Dump ship's entire track history